createdAt,value
2022-11-28T00:01:25.287Z,5.10
2022-11-28T00:03:52.747Z,5.10
2022-11-28T00:06:20.405Z,5.10
2022-11-28T00:08:47.587Z,5.10
2022-11-28T00:11:16.187Z,5.10
2022-11-28T00:13:43.985Z,5.20
2022-11-28T00:16:16.353Z,5.20
2022-11-28T00:18:43.677Z,5.20
2022-11-28T00:21:12.906Z,5.30
2022-11-28T00:23:41.034Z,5.30
2022-11-28T00:26:32.190Z,5.40
2022-11-28T00:29:01.330Z,5.40
2022-11-28T00:31:30.511Z,5.40
2022-11-28T00:33:58.063Z,5.40
2022-11-28T00:36:25.625Z,5.40
2022-11-28T00:38:52.630Z,5.40
2022-11-28T00:41:21.964Z,5.40
2022-11-28T00:43:50.359Z,5.40
2022-11-28T00:46:18.971Z,5.40
2022-11-28T00:48:46.294Z,5.40
2022-11-28T00:51:25.686Z,5.50
2022-11-28T00:53:54.630Z,5.50
2022-11-28T00:56:30.582Z,5.40
2022-11-28T00:58:58.081Z,5.40
2022-11-28T01:01:28.640Z,5.50
2022-11-28T01:03:57.455Z,5.40
2022-11-28T01:06:33.915Z,5.50
2022-11-28T01:09:02.548Z,5.40
2022-11-28T01:11:30.627Z,5.40
2022-11-28T01:14:00.550Z,5.40
2022-11-28T01:16:28.565Z,5.40
2022-11-28T01:18:55.701Z,5.40
2022-11-28T01:21:22.937Z,5.40
2022-11-28T01:23:50.419Z,5.40
2022-11-28T01:26:20.863Z,5.40
2022-11-28T01:28:48.460Z,5.40
2022-11-28T01:31:18.203Z,5.40
2022-11-28T01:33:45.511Z,5.40
2022-11-28T01:36:14.276Z,5.40
2022-11-28T01:38:41.961Z,5.40
2022-11-28T01:41:10.299Z,5.40
2022-11-28T01:43:38.097Z,5.30
2022-11-28T01:46:05.783Z,5.30
2022-11-28T01:48:38.358Z,5.30
2022-11-28T01:51:09.184Z,5.30
2022-11-28T01:53:40.977Z,5.20
2022-11-28T01:56:14.769Z,5.20
2022-11-28T01:58:45.767Z,5.20
2022-11-28T02:01:13.651Z,5.10
2022-11-28T02:03:47.142Z,5.10
2022-11-28T02:06:20.346Z,5.10
2022-11-28T02:08:50.530Z,5.10
2022-11-28T02:11:29.456Z,5.10
2022-11-28T02:14:08.545Z,5.00
2022-11-28T02:17:10.297Z,5.00
2022-11-28T02:19:49.071Z,4.90
2022-11-28T02:22:21.966Z,4.90
2022-11-28T02:25:04.618Z,4.90
2022-11-28T02:28:09.143Z,4.90
2022-11-28T02:31:03.973Z,4.90
2022-11-28T02:33:53.673Z,4.80
2022-11-28T02:36:32.421Z,4.80
2022-11-28T02:39:08.214Z,4.70
2022-11-28T02:41:43.237Z,4.70
2022-11-28T02:44:24.438Z,4.80
2022-11-28T02:47:16.252Z,4.70
2022-11-28T02:50:03.349Z,4.70
2022-11-28T02:52:39.770Z,4.70
2022-11-28T02:55:08.481Z,4.70
2022-11-28T02:57:38.702Z,4.60
2022-11-28T03:00:43.893Z,4.60
2022-11-28T03:03:16.744Z,4.60
2022-11-28T03:06:08.196Z,4.50
2022-11-28T03:08:47.120Z,4.50
2022-11-28T03:11:57.722Z,4.50
2022-11-28T03:14:49.868Z,4.50
2022-11-28T03:17:35.501Z,4.50
2022-11-28T03:20:08.418Z,4.50
2022-11-28T03:22:58.330Z,4.40
2022-11-28T03:25:38.650Z,4.50
2022-11-28T03:28:16.493Z,4.50
2022-11-28T03:30:55.312Z,4.50
2022-11-28T03:33:25.502Z,4.50
2022-11-28T03:35:59.518Z,4.50
2022-11-28T03:38:34.124Z,4.50
2022-11-28T03:41:08.188Z,4.60
2022-11-28T03:43:43.285Z,4.60
2022-11-28T03:46:15.387Z,4.60
2022-11-28T03:48:53.058Z,4.60
2022-11-28T03:51:40.052Z,4.60
2022-11-28T03:54:22.537Z,4.70
2022-11-28T03:57:23.614Z,4.60
2022-11-28T03:59:53.174Z,4.70
2022-11-28T04:02:31.192Z,4.60
2022-11-28T04:05:10.955Z,4.70
2022-11-28T04:07:57.030Z,4.70
2022-11-28T04:10:45.216Z,4.80
2022-11-28T04:13:23.900Z,4.80
2022-11-28T04:15:56.534Z,4.80
2022-11-28T04:18:32.482Z,4.90
2022-11-28T04:21:20.431Z,4.90
2022-11-28T04:23:49.344Z,4.90
2022-11-28T04:26:22.727Z,5.00
2022-11-28T04:28:51.915Z,5.00
2022-11-28T04:31:22.516Z,5.00
2022-11-28T04:33:53.127Z,5.00
2022-11-28T04:36:22.991Z,5.00
2022-11-28T04:38:56.573Z,5.00
2022-11-28T04:41:31.671Z,5.00
2022-11-28T04:44:05.043Z,5.00
2022-11-28T04:46:39.734Z,5.10
2022-11-28T04:49:07.080Z,5.00
2022-11-28T04:52:03.927Z,5.10
2022-11-28T04:54:51.858Z,5.00
2022-11-28T04:57:30.411Z,5.00
2022-11-28T04:59:58.245Z,5.00
2022-11-28T05:02:26.085Z,5.00
2022-11-28T05:04:55.678Z,5.00
2022-11-28T05:07:24.314Z,5.00
2022-11-28T05:09:51.816Z,5.00
2022-11-28T05:12:18.935Z,5.00
2022-11-28T05:14:45.926Z,5.00
2022-11-28T05:17:13.926Z,5.00
2022-11-28T05:19:40.896Z,5.00
2022-11-28T05:22:07.826Z,5.00
2022-11-28T05:24:34.909Z,5.10
2022-11-28T05:27:01.937Z,5.10
2022-11-28T05:29:28.951Z,5.10
2022-11-28T05:31:56.308Z,5.10
2022-11-28T05:34:23.305Z,5.10
2022-11-28T05:36:50.327Z,5.10
2022-11-28T05:39:17.587Z,5.10
2022-11-28T05:41:44.538Z,5.10
2022-11-28T05:44:11.478Z,5.10
2022-11-28T05:46:38.465Z,5.10
2022-11-28T05:49:05.496Z,5.10
2022-11-28T05:51:32.797Z,5.10
2022-11-28T05:53:59.806Z,5.20
2022-11-28T05:56:26.845Z,5.20
2022-11-28T05:58:54.371Z,5.20
2022-11-28T06:01:24.760Z,5.20
2022-11-28T06:03:58.098Z,5.20
2022-11-28T06:06:26.640Z,5.20
2022-11-28T06:08:53.755Z,5.30
2022-11-28T06:11:22.340Z,5.30
2022-11-28T06:13:50.490Z,5.30
2022-11-28T06:16:23.052Z,5.30
2022-11-28T06:18:54.966Z,5.30
2022-11-28T06:21:22.909Z,5.30
2022-11-28T06:23:50.172Z,5.40
2022-11-28T06:26:21.469Z,5.40
2022-11-28T06:28:49.367Z,5.40
2022-11-28T06:31:21.688Z,5.40
2022-11-28T06:33:49.316Z,5.40
2022-11-28T06:36:18.155Z,5.50
2022-11-28T06:38:45.203Z,5.50
2022-11-28T06:41:15.488Z,5.50
2022-11-28T06:43:42.931Z,5.50
2022-11-28T06:46:16.202Z,5.50
2022-11-28T06:48:44.630Z,5.50
2022-11-28T06:51:12.595Z,5.50
2022-11-28T06:53:40.539Z,5.50
2022-11-28T06:56:09.702Z,5.50
2022-11-28T06:58:37.199Z,5.60
2022-11-28T07:01:19.157Z,5.60
2022-11-28T07:03:46.864Z,5.60
2022-11-28T07:06:15.112Z,5.60
2022-11-28T07:08:42.779Z,5.60
2022-11-28T07:11:12.280Z,5.60
2022-11-28T07:13:40.304Z,5.60
2022-11-28T07:16:08.146Z,5.60
2022-11-28T07:18:35.621Z,5.60
2022-11-28T07:21:02.654Z,5.60
2022-11-28T07:23:29.742Z,5.70
2022-11-28T07:26:01.823Z,5.70
2022-11-28T07:28:30.147Z,5.70
2022-11-28T07:31:12.522Z,5.70
2022-11-28T07:33:44.143Z,5.80
2022-11-28T07:36:22.995Z,5.80
2022-11-28T07:38:52.735Z,5.80
2022-11-28T07:41:25.970Z,5.80
2022-11-28T07:43:56.049Z,5.90
2022-11-28T07:46:23.545Z,5.90
2022-11-28T07:48:50.733Z,5.90
2022-11-28T07:51:20.826Z,6.00
2022-11-28T07:53:48.877Z,6.00
2022-11-28T07:56:18.614Z,6.00
2022-11-28T07:58:46.725Z,6.10
2022-11-28T08:01:19.304Z,6.10
2022-11-28T08:03:47.234Z,6.10
2022-11-28T08:06:16.691Z,6.20
2022-11-28T08:08:45.591Z,6.20
2022-11-28T08:11:13.055Z,6.30
2022-11-28T08:13:40.625Z,6.30
2022-11-28T08:16:16.035Z,6.30
2022-11-28T08:18:43.507Z,6.40
2022-11-28T08:21:17.779Z,6.50
2022-11-28T08:23:45.570Z,6.50
2022-11-28T08:26:17.102Z,6.60
2022-11-28T08:28:44.735Z,6.60
2022-11-28T08:31:24.537Z,6.70
2022-11-28T08:33:53.275Z,6.70
2022-11-28T08:36:21.390Z,6.80
2022-11-28T08:39:03.258Z,6.80
2022-11-28T08:41:36.104Z,6.90
2022-11-28T08:44:03.077Z,6.90
2022-11-28T08:46:30.609Z,6.90
2022-11-28T08:48:57.618Z,7.00
2022-11-28T08:51:24.756Z,7.00
2022-11-28T08:53:59.112Z,7.10
2022-11-28T08:56:26.650Z,7.10
2022-11-28T08:58:54.171Z,7.10
2022-11-28T09:01:24.128Z,7.20
2022-11-28T09:03:52.227Z,7.20
2022-11-28T09:06:21.070Z,7.20
2022-11-28T09:08:49.130Z,7.30
2022-11-28T09:11:20.551Z,7.30
2022-11-28T09:13:47.866Z,7.30
2022-11-28T09:16:15.498Z,7.30
2022-11-28T09:18:42.716Z,7.30
2022-11-28T09:21:11.978Z,7.30
2022-11-28T09:23:41.195Z,7.30
2022-11-28T09:26:14.450Z,7.30
2022-11-28T09:28:41.889Z,7.30
2022-11-28T09:31:10.117Z,7.30
2022-11-28T09:33:37.175Z,7.30
2022-11-28T09:36:15.896Z,7.30
2022-11-28T09:38:42.927Z,7.30
2022-11-28T09:41:41.301Z,7.30
2022-11-28T09:44:20.180Z,7.40
2022-11-28T09:46:50.117Z,7.40
2022-11-28T09:49:27.229Z,7.40
2022-11-28T09:52:12.148Z,7.50
2022-11-28T09:55:02.140Z,7.50
2022-11-28T09:57:40.629Z,7.50
2022-11-28T10:00:22.776Z,7.60
2022-11-28T10:03:04.329Z,7.70
2022-11-28T10:05:46.400Z,7.70
2022-11-28T10:08:18.835Z,7.80
2022-11-28T10:11:16.461Z,7.80
2022-11-28T10:14:09.122Z,7.90
2022-11-28T10:17:10.214Z,7.90
2022-11-28T10:19:58.299Z,8.00
2022-11-28T10:22:39.982Z,8.00
2022-11-28T10:25:32.536Z,8.00
2022-11-28T10:27:59.636Z,8.10
2022-11-28T10:30:32.773Z,8.10
2022-11-28T10:33:19.262Z,8.10
2022-11-28T10:35:54.196Z,8.10
2022-11-28T10:38:25.941Z,8.10
2022-11-28T10:40:59.073Z,8.10
2022-11-28T10:43:54.775Z,8.10
2022-11-28T10:46:51.168Z,8.10
2022-11-28T10:49:21.003Z,8.10
2022-11-28T10:52:19.462Z,8.10
2022-11-28T10:54:59.167Z,8.10
2022-11-28T10:57:38.598Z,8.20
2022-11-28T11:00:14.114Z,8.20
2022-11-28T11:02:59.679Z,8.30
2022-11-28T11:05:32.513Z,8.30
2022-11-28T11:08:24.093Z,8.30
2022-11-28T11:10:57.960Z,8.30
2022-11-28T11:13:27.784Z,8.30
2022-11-28T11:16:04.791Z,8.30
2022-11-28T11:18:53.550Z,8.40
2022-11-28T11:21:21.788Z,8.40
2022-11-28T11:23:50.442Z,8.40
2022-11-28T11:26:27.398Z,8.40
2022-11-28T11:28:56.397Z,8.40
2022-11-28T11:31:30.918Z,8.40
2022-11-28T11:34:17.109Z,8.50
2022-11-28T11:36:44.723Z,8.50
2022-11-28T11:39:12.005Z,8.50
2022-11-28T11:41:42.214Z,8.50
2022-11-28T11:44:15.275Z,8.50
2022-11-28T11:46:51.897Z,8.50
2022-11-28T11:49:32.445Z,8.50
2022-11-28T11:52:03.909Z,8.60
2022-11-28T11:54:30.964Z,8.60
2022-11-28T11:57:25.095Z,8.60
2022-11-28T11:59:52.876Z,8.70
2022-11-28T12:02:41.076Z,8.70
2022-11-28T12:05:18.973Z,8.80
2022-11-28T12:07:58.790Z,8.80
2022-11-28T12:10:29.858Z,8.80
2022-11-28T12:12:57.344Z,8.90
2022-11-28T12:15:55.629Z,8.90
2022-11-28T12:18:52.689Z,8.90
2022-11-28T12:21:28.292Z,8.90
2022-11-28T12:24:10.009Z,8.90
2022-11-28T12:27:14.830Z,8.90
2022-11-28T12:30:33.427Z,8.90
2022-11-28T12:33:14.600Z,8.90
2022-11-28T12:35:42.938Z,8.90
2022-11-28T12:38:28.963Z,9.00
2022-11-28T12:40:56.015Z,8.90
2022-11-28T12:43:44.039Z,8.90
2022-11-28T12:46:14.164Z,8.90
2022-11-28T12:49:09.379Z,9.00
2022-11-28T12:51:43.669Z,9.00
2022-11-28T12:54:29.610Z,9.00
2022-11-28T12:57:08.068Z,9.00
2022-11-28T13:00:03.438Z,9.10
2022-11-28T13:02:50.469Z,9.00
2022-11-28T13:06:02.654Z,9.00
2022-11-28T13:08:48.259Z,9.00
2022-11-28T13:11:26.648Z,9.00
2022-11-28T13:13:58.822Z,9.00
2022-11-28T13:16:48.994Z,9.00
2022-11-28T13:19:26.659Z,9.10
2022-11-28T13:21:59.843Z,9.00
2022-11-28T13:24:32.991Z,9.00
2022-11-28T13:27:22.189Z,9.10
2022-11-28T13:29:49.185Z,9.10
2022-11-28T13:32:54.772Z,9.10
2022-11-28T13:35:22.498Z,9.10
2022-11-28T13:41:04.955Z,9.10
2022-11-28T13:43:50.120Z,9.10
2022-11-28T13:46:17.544Z,9.10
2022-11-28T13:51:33.732Z,9.10
2022-11-28T13:54:26.966Z,9.00
2022-11-28T13:57:21.762Z,9.00
2022-11-28T13:59:59.531Z,9.00
2022-11-28T14:02:50.412Z,9.00
2022-11-28T14:05:27.492Z,9.00
2022-11-28T14:07:56.460Z,9.00
2022-11-28T14:10:34.618Z,9.00
2022-11-28T14:13:23.293Z,9.00
2022-11-28T14:15:59.791Z,9.10
2022-11-28T14:18:57.729Z,9.10
2022-11-28T14:21:28.381Z,9.10
2022-11-28T14:24:10.415Z,9.10
2022-11-28T14:26:40.490Z,9.00
2022-11-28T14:29:24.797Z,9.00
2022-11-28T14:32:21.777Z,9.00
2022-11-28T14:34:48.677Z,9.00
2022-11-28T14:37:21.920Z,9.10
2022-11-28T14:39:50.221Z,9.00
2022-11-28T14:42:43.896Z,9.00
2022-11-28T14:45:32.671Z,9.00
2022-11-28T14:48:24.502Z,8.90
2022-11-28T14:51:00.551Z,8.90
2022-11-28T14:53:36.999Z,8.90
2022-11-28T14:56:14.925Z,8.90
2022-11-28T14:58:49.777Z,8.90
2022-11-28T15:01:40.987Z,8.90
2022-11-28T15:05:05.686Z,8.90
2022-11-28T15:08:10.444Z,8.80
2022-11-28T15:10:53.177Z,8.90
2022-11-28T15:13:23.116Z,8.80
2022-11-28T15:15:53.406Z,8.80
2022-11-28T15:18:23.710Z,8.80
2022-11-28T15:21:05.291Z,8.80
2022-11-28T15:23:35.460Z,8.80
2022-11-28T15:26:03.570Z,8.80
2022-11-28T15:28:33.992Z,8.80
2022-11-28T15:31:04.095Z,8.80
2022-11-28T15:33:32.141Z,8.80
2022-11-28T15:36:24.831Z,8.70
2022-11-28T15:38:52.150Z,8.80
2022-11-28T15:41:27.348Z,8.70
2022-11-28T15:43:56.488Z,8.70
2022-11-28T15:46:33.749Z,8.70
2022-11-28T15:49:05.186Z,8.70
2022-11-28T15:51:35.083Z,8.70
2022-11-28T15:54:11.935Z,8.70
2022-11-28T15:56:57.198Z,8.70
2022-11-28T15:59:24.203Z,8.60
2022-11-28T16:01:59.024Z,8.60
2022-11-28T16:04:27.258Z,8.60
2022-11-28T16:06:57.749Z,8.60
2022-11-28T16:09:26.882Z,8.60
2022-11-28T16:11:54.970Z,8.60
2022-11-28T16:14:27.383Z,8.60
2022-11-28T16:17:00.697Z,8.60
2022-11-28T16:19:37.140Z,8.60
2022-11-28T16:22:19.729Z,8.50
2022-11-28T16:24:55.446Z,8.50
2022-11-28T16:27:37.322Z,8.50
2022-11-28T16:30:29.440Z,8.50
2022-11-28T16:32:57.032Z,8.50
2022-11-28T16:35:28.860Z,8.50
2022-11-28T16:38:20.937Z,8.50
2022-11-28T16:40:48.265Z,8.50
2022-11-28T16:43:23.972Z,8.50
2022-11-28T16:46:01.543Z,8.50
2022-11-28T16:48:32.430Z,8.40
2022-11-28T16:51:02.503Z,8.50
2022-11-28T16:53:41.697Z,8.50
2022-11-28T16:56:30.703Z,8.50
2022-11-28T16:59:09.517Z,8.50
2022-11-28T17:01:37.102Z,8.50
2022-11-28T17:04:05.100Z,8.50
2022-11-28T17:06:36.905Z,8.40
2022-11-28T17:09:11.661Z,8.40
2022-11-28T17:11:44.034Z,8.40
2022-11-28T17:14:13.899Z,8.40
2022-11-28T17:16:42.431Z,8.40
2022-11-28T17:19:09.651Z,8.40
2022-11-28T17:21:40.902Z,8.40
2022-11-28T17:24:24.279Z,8.40
2022-11-28T17:26:53.219Z,8.40
2022-11-28T17:29:21.181Z,8.40
2022-11-28T17:31:49.143Z,8.40
2022-11-28T17:34:33.223Z,8.40
2022-11-28T17:37:01.724Z,8.40
2022-11-28T17:39:29.072Z,8.30
2022-11-28T17:41:58.681Z,8.30
2022-11-28T17:44:37.687Z,8.40
2022-11-28T17:47:05.189Z,8.40
2022-11-28T17:49:32.824Z,8.40
2022-11-28T17:51:59.955Z,8.40
2022-11-28T17:54:27.508Z,8.40
2022-11-28T17:56:55.173Z,8.40
2022-11-28T17:59:23.972Z,8.40
2022-11-28T18:01:51.159Z,8.40
2022-11-28T18:04:24.119Z,8.40
2022-11-28T18:06:51.259Z,8.40
2022-11-28T18:09:18.208Z,8.40
2022-11-28T18:11:46.831Z,8.40
2022-11-28T18:14:14.638Z,8.40
2022-11-28T18:16:43.993Z,8.30
2022-11-28T18:19:11.292Z,8.30
2022-11-28T18:21:38.960Z,8.30
2022-11-28T18:24:06.443Z,8.30
2022-11-28T18:26:33.618Z,8.30
2022-11-28T18:29:00.768Z,8.30
2022-11-28T18:31:29.922Z,8.30
2022-11-28T18:34:02.270Z,8.30
2022-11-28T18:36:34.680Z,8.30
2022-11-28T18:39:04.670Z,8.20
2022-11-28T18:41:32.577Z,8.20
2022-11-28T18:44:04.710Z,8.20
2022-11-28T18:46:33.544Z,8.20
2022-11-28T18:49:01.647Z,8.20
2022-11-28T18:51:34.364Z,8.20
2022-11-28T18:54:04.595Z,8.20
2022-11-28T18:56:33.396Z,8.20
2022-11-28T18:59:00.734Z,8.20
2022-11-28T19:01:31.077Z,8.20
2022-11-28T19:04:00.393Z,8.10
2022-11-28T19:06:28.750Z,8.10
2022-11-28T19:08:57.869Z,8.10
2022-11-28T19:11:25.737Z,8.10
2022-11-28T19:13:53.583Z,8.10
2022-11-28T19:16:30.136Z,8.10
2022-11-28T19:18:57.882Z,8.10
2022-11-28T19:21:27.975Z,8.10
2022-11-28T19:23:56.945Z,8.10
2022-11-28T19:26:26.281Z,8.10
2022-11-28T19:28:54.163Z,8.10
2022-11-28T19:31:29.559Z,8.10
2022-11-28T19:34:01.239Z,8.10
2022-11-28T19:36:33.579Z,8.10
2022-11-28T19:39:01.063Z,8.10
2022-11-28T19:41:29.877Z,8.10
2022-11-28T19:43:57.888Z,8.10
2022-11-28T19:46:29.208Z,8.10
2022-11-28T19:48:59.224Z,8.10
2022-11-28T19:51:26.177Z,8.10
2022-11-28T19:53:56.259Z,8.10
2022-11-28T19:56:27.151Z,8.10
2022-11-28T19:58:54.652Z,8.20
2022-11-28T20:01:24.087Z,8.20
2022-11-28T20:03:53.908Z,8.20
2022-11-28T20:06:30.547Z,8.20
2022-11-28T20:09:08.258Z,8.10
2022-11-28T20:11:38.646Z,8.20
2022-11-28T20:14:08.367Z,8.10
2022-11-28T20:16:36.947Z,8.10
2022-11-28T20:19:05.402Z,8.10
2022-11-28T20:21:34.161Z,8.10
2022-11-28T20:24:04.720Z,8.10
2022-11-28T20:26:37.675Z,8.20
2022-11-28T20:29:05.858Z,8.20
2022-11-28T20:31:37.144Z,8.20
2022-11-28T20:34:06.085Z,8.20
2022-11-28T20:36:33.745Z,8.20
2022-11-28T20:39:01.955Z,8.10
2022-11-28T20:41:29.619Z,8.20
2022-11-28T20:43:58.571Z,8.20
2022-11-28T20:46:30.758Z,8.20
2022-11-28T20:48:59.899Z,8.20
2022-11-28T20:51:29.030Z,8.20
2022-11-28T20:53:58.360Z,8.20
2022-11-28T20:56:31.972Z,8.10
2022-11-28T20:59:00.880Z,8.10
2022-11-28T21:01:31.007Z,8.20
2022-11-28T21:03:58.494Z,8.20
2022-11-28T21:06:25.513Z,8.20
2022-11-28T21:08:52.484Z,8.20
2022-11-28T21:11:50.131Z,8.20
2022-11-28T21:14:08.870Z,8.20
2022-11-28T21:16:36.224Z,8.20
2022-11-28T21:19:06.024Z,8.10
2022-11-28T21:21:34.385Z,8.20
2022-11-28T21:24:08.398Z,8.10
2022-11-28T21:26:41.024Z,8.20
2022-11-28T21:29:12.564Z,8.20
2022-11-28T21:31:44.504Z,8.10
2022-11-28T21:34:14.509Z,8.10
2022-11-28T21:36:42.683Z,8.20
2022-11-28T21:39:18.771Z,8.20
2022-11-28T21:41:46.409Z,8.20
2022-11-28T21:44:13.721Z,8.20
2022-11-28T21:46:40.750Z,8.20
2022-11-28T21:49:07.849Z,8.20
2022-11-28T21:51:39.200Z,8.20
2022-11-28T21:54:06.418Z,8.20
2022-11-28T21:56:33.983Z,8.20
2022-11-28T21:59:01.204Z,8.20
2022-11-28T22:01:28.706Z,8.20
2022-11-28T22:04:02.139Z,8.20
2022-11-28T22:06:29.948Z,8.10
2022-11-28T22:08:57.454Z,8.10
2022-11-28T22:11:24.822Z,8.10
2022-11-28T22:13:52.898Z,8.10
2022-11-28T22:16:26.338Z,8.10
2022-11-28T22:18:55.055Z,8.10
2022-11-28T22:21:51.479Z,8.00
2022-11-28T22:24:09.330Z,8.00
2022-11-28T22:26:36.522Z,8.00
2022-11-28T22:29:04.347Z,8.00
2022-11-28T22:31:32.968Z,8.00
2022-11-28T22:34:00.457Z,8.00
2022-11-28T22:36:28.437Z,8.00
2022-11-28T22:38:57.212Z,8.00
2022-11-28T22:41:29.012Z,8.00
2022-11-28T22:44:00.890Z,8.10
2022-11-28T22:46:30.064Z,8.10
2022-11-28T22:49:02.743Z,8.10
2022-11-28T22:51:31.158Z,8.00
2022-11-28T22:54:00.460Z,8.10
2022-11-28T22:56:30.539Z,8.00
2022-11-28T22:58:58.974Z,8.00
2022-11-28T23:01:29.744Z,8.10
2022-11-28T23:03:57.775Z,8.10
2022-11-28T23:06:30.689Z,8.10
2022-11-28T23:08:59.739Z,8.00
2022-11-28T23:11:30.945Z,8.00
2022-11-28T23:13:59.642Z,8.00
2022-11-28T23:16:29.640Z,8.00
2022-11-28T23:18:59.560Z,8.00
2022-11-28T23:21:30.217Z,8.00
2022-11-28T23:23:57.459Z,8.00
2022-11-28T23:26:28.267Z,8.00
2022-11-28T23:28:55.677Z,8.00
2022-11-28T23:31:25.334Z,8.00
2022-11-28T23:33:54.645Z,8.00
2022-11-28T23:36:40.047Z,8.00
2022-11-28T23:39:26.904Z,8.00
2022-11-28T23:42:03.457Z,8.00
2022-11-28T23:44:30.459Z,7.90
2022-11-28T23:46:57.452Z,7.90
2022-11-28T23:49:24.399Z,7.90
2022-11-28T23:51:51.443Z,7.90
2022-11-28T23:54:18.667Z,8.00
2022-11-28T23:56:45.762Z,8.00
2022-11-28T23:59:13.458Z,8.00
